Amsterdam, MT

12:55 PM MDT on October 23, 2014 (GMT -0600)
Mission | Change Station
CLOSE
Current Station
Airport
Location: Livingston,
Elevation: 4656 ft
Nearby Weather Stations

Elev 4656 ft 45.70 °N, 110.44 °W | Updated 1 hour ago

Overcast
Overcast
64 °F
Feels Like 64 °F
N
33
Wind Variable Wind from SW
Gusts 43 mph

Today
High -- | Low -- °F
--% Chance of Precip.
Yesterday
High -- | Low -- °F
Precip. -- in
7:52 AM 6:25 PM
Waning Crescent, 0% visible
Pressure 29.86 in
Visibility 10.0 miles
Clouds Overcast 8000 ft
Dew Point 27 °F
Humidity 25%
Rainfall 0.00 in
Snow Depth Not available.
UV 1 out of 12
Pollen 2.30 out of 12
Air Quality Not available.
Flu Activity No Activity
METAR KLVM 231753Z AUTO 23029G37KT 10SM OVC080 18/M03 A2994 RMK AO2 PK WND 24039/1658 SLP112 T01781028 10178 20117 50000

More Conditions Fewer Conditions

Pressure 29.86 in
Visibility 10.0 miles
Clouds Overcast 8000 ft
Dew Point 27 °F
Humidity 25%
Rainfall 0.00 in
Snow Depth Not available.
UV 1 out of 12
Pollen 2.30 out of 12
Air Quality Not available.
Flu Activity No Activity
METAR KLVM 231753Z AUTO 23029G37KT 10SM OVC080 18/M03 A2994 RMK AO2 PK WND 24039/1658 SLP112 T01781028 10178 20117 50000

More Conditions Fewer Conditions

10-Day Weather Forecast

Almanac

Astronomy

Oct. 23, 2014 Rise Set
Actual Time 7:52 AM MDT 6:25 PM MDT
Civil Twilight 7:22 AM MDT 6:56 PM MDT
Nautical Twilight 6:47 AM MDT 7:30 PM MDT
Astronomical Twilight 6:13 AM MDT 8:05 PM MDT
Moon 7:35 AM MDT 6:29 PM MDT
Length of Visible Light 11h 33m
Length of Day
10h 32m
Tomorrow will be 3m 1s shorter.
Waning Crescent, 0% of the Moon is Illuminated
Today
Waning Crescent
Oct 23
New
Oct 30
First Quarter
Nov 6
Full
Nov 14
Last Quarter

Today's Extremes

State Highs State Lows

Community

WunderPhotos

Upload Photos

1,764,339 photos uploaded!

WunderBlogs® & News

By Dr. Jeff Masters
Director of Meteorology, Weather Underground
By Kari Strenfel
Meteorologist, Weather Underground
By Christopher C. Burt
Weather Historian, Weather Underground
October 23, 2014
October 23, 2014
October 23, 2014

Nearby

Snow Depth

Station Depth Elevation
Sacajawea 1 in 6550 ft
Lick Creek 0 in 6860 ft
Brackett Creek 3 in 7320 ft
Shower Falls 1 in 8100 ft
Albro Lake 2 in 8300 ft

Earthquake Activity

City Distance Mag. Time & Date
No recent earthquake activity has been reported nearby.
Minimum magnitude displayed is 2.5.

Coastal Water Temperatures

Place Temperature
No Stations Reporting

Nearby Weather Stations